createdAt,value
2018-04-07T00:00:07.015Z,20.51
2018-04-07T00:00:39.821Z,20.50
2018-04-07T00:01:11.886Z,20.51
2018-04-07T00:01:43.902Z,20.50
2018-04-07T00:02:15.945Z,20.49
2018-04-07T00:02:47.976Z,20.50
2018-04-07T00:03:20.778Z,20.50
2018-04-07T00:03:52.808Z,20.49
2018-04-07T00:04:25.660Z,20.51
2018-04-07T00:04:57.688Z,20.49
2018-04-07T00:05:29.708Z,20.49
2018-04-07T00:06:01.809Z,20.50
2018-04-07T00:06:33.814Z,20.49
2018-04-07T00:07:05.834Z,20.49
2018-04-07T00:07:37.866Z,20.50
2018-04-07T00:08:09.900Z,20.49
2018-04-07T00:08:41.961Z,20.51
2018-04-07T00:09:13.979Z,20.51
2018-04-07T00:09:46.018Z,20.51
2018-04-07T00:10:18.025Z,20.50
2018-04-07T00:10:50.816Z,20.49
2018-04-07T00:11:22.843Z,20.50
2018-04-07T00:11:54.883Z,20.50
2018-04-07T00:12:26.909Z,20.49
2018-04-07T00:12:58.923Z,20.49
2018-04-07T00:13:30.968Z,20.50
2018-04-07T00:14:02.997Z,20.49
2018-04-07T00:14:35.021Z,20.49
2018-04-07T00:15:07.039Z,20.50
2018-04-07T00:15:39.082Z,20.50
2018-04-07T00:16:11.172Z,20.50
2018-04-07T00:16:43.905Z,20.51
2018-04-07T00:17:15.939Z,20.49
2018-04-07T00:17:48.709Z,20.51
2018-04-07T00:18:20.749Z,20.51
2018-04-07T00:18:53.562Z,20.50
2018-04-07T00:19:25.638Z,20.51
2018-04-07T00:19:57.631Z,20.52
2018-04-07T00:20:29.693Z,20.50
2018-04-07T00:21:01.834Z,20.49
2018-04-07T00:21:33.829Z,20.51
2018-04-07T00:22:05.848Z,20.50
2018-04-07T00:22:37.880Z,20.50
2018-04-07T00:23:10.697Z,20.50
2018-04-07T00:23:42.723Z,20.51
2018-04-07T00:24:15.508Z,20.51
2018-04-07T00:24:47.549Z,20.49
2018-04-07T00:25:19.610Z,20.50
2018-04-07T00:25:51.645Z,20.51
2018-04-07T00:26:24.412Z,20.51
2018-04-07T00:26:56.442Z,20.51
2018-04-07T00:27:29.241Z,20.51
2018-04-07T00:28:01.260Z,20.51
2018-04-07T00:28:34.111Z,20.51
2018-04-07T00:29:06.146Z,20.51
2018-04-07T00:29:38.224Z,20.49
2018-04-07T00:30:10.249Z,20.50
2018-04-07T00:30:42.268Z,20.50
2018-04-07T00:31:14.293Z,20.50
2018-04-07T00:31:47.092Z,20.51
2018-04-07T00:32:19.117Z,20.50
2018-04-07T00:32:51.903Z,20.50
2018-04-07T00:33:23.946Z,20.49
2018-04-07T00:33:56.048Z,20.49
2018-04-07T00:34:28.082Z,20.49
2018-04-07T00:35:00.129Z,20.49
2018-04-07T00:35:32.147Z,20.49
2018-04-07T00:36:04.942Z,20.49
2018-04-07T00:36:36.977Z,20.49
2018-04-07T00:37:09.021Z,20.49
2018-04-07T00:37:41.828Z,20.50
2018-04-07T00:38:13.854Z,20.50
2018-04-07T00:38:45.878Z,20.49
2018-04-07T00:39:17.991Z,20.49
2018-04-07T00:39:50.045Z,20.49
2018-04-07T00:40:22.057Z,20.50
2018-04-07T00:40:54.083Z,20.50
2018-04-07T00:41:26.876Z,20.50
2018-04-07T00:41:58.895Z,20.48
2018-04-07T00:42:31.688Z,20.49
2018-04-07T00:43:03.713Z,20.50
2018-04-07T00:43:35.753Z,20.51
2018-04-07T00:44:07.778Z,20.49
2018-04-07T00:44:39.812Z,20.49
2018-04-07T00:45:11.840Z,20.49
2018-04-07T00:45:43.869Z,20.49
2018-04-07T00:46:15.904Z,20.49
2018-04-07T00:46:47.949Z,20.48
2018-04-07T00:47:19.985Z,20.49
2018-04-07T00:47:52.016Z,20.49
2018-04-07T00:48:24.041Z,20.49
2018-04-07T00:48:56.834Z,20.50
2018-04-07T00:49:28.876Z,20.49
2018-04-07T00:50:00.913Z,20.49
2018-04-07T00:50:33.741Z,20.45
2018-04-07T00:51:05.737Z,20.49
2018-04-07T00:51:38.566Z,20.48
2018-04-07T00:52:10.606Z,20.48
2018-04-07T00:52:42.633Z,20.50
2018-04-07T00:53:14.652Z,20.49
2018-04-07T00:53:47.453Z,20.48
2018-04-07T00:54:19.473Z,20.48
2018-04-07T00:54:52.249Z,20.48
2018-04-07T00:55:24.284Z,20.48
2018-04-07T00:55:56.307Z,20.49
2018-04-07T00:56:28.362Z,20.48
2018-04-07T00:57:00.387Z,20.49
2018-04-07T00:57:32.425Z,20.48
2018-04-07T00:58:04.465Z,20.49
2018-04-07T00:58:36.484Z,20.49
2018-04-07T00:59:08.543Z,20.49
2018-04-07T00:59:40.570Z,20.49
2018-04-07T01:00:12.588Z,20.49
2018-04-07T01:00:44.635Z,20.49
2018-04-07T01:01:16.696Z,20.49
2018-04-07T01:01:48.734Z,20.50
2018-04-07T01:02:20.768Z,20.49
2018-04-07T01:02:53.574Z,20.48
2018-04-07T01:03:25.596Z,20.50
2018-04-07T01:03:57.624Z,20.49
2018-04-07T01:04:30.413Z,20.49
2018-04-07T01:05:02.443Z,20.49
2018-04-07T01:05:35.244Z,20.50
2018-04-07T01:06:07.267Z,20.49
2018-04-07T01:06:40.061Z,20.49
2018-04-07T01:07:12.087Z,20.49
2018-04-07T01:07:44.872Z,20.49
2018-04-07T01:08:16.944Z,20.48
2018-04-07T01:08:49.696Z,20.49
2018-04-07T01:09:21.709Z,20.49
2018-04-07T01:09:53.743Z,20.48
2018-04-07T01:10:25.790Z,20.48
2018-04-07T01:10:57.797Z,20.49
2018-04-07T01:11:29.840Z,20.47
2018-04-07T01:12:02.625Z,20.47
2018-04-07T01:12:34.653Z,20.47
2018-04-07T01:13:07.446Z,20.48
2018-04-07T01:13:39.464Z,20.48
2018-04-07T01:14:11.494Z,20.47
2018-04-07T01:14:43.555Z,20.48
2018-04-07T01:15:15.591Z,20.48
2018-04-07T01:15:47.618Z,20.47
2018-04-07T01:16:19.647Z,20.47
2018-04-07T01:16:52.425Z,20.48
2018-04-07T01:17:24.441Z,20.48
2018-04-07T01:17:57.252Z,20.49
2018-04-07T01:18:29.276Z,20.47
2018-04-07T01:19:02.091Z,20.48
2018-04-07T01:19:34.136Z,20.47
2018-04-07T01:20:06.165Z,20.47
2018-04-07T01:20:38.191Z,20.48
2018-04-07T01:21:10.981Z,20.47
2018-04-07T01:21:43.021Z,20.48
2018-04-07T01:22:15.827Z,20.49
2018-04-07T01:22:47.837Z,20.49
2018-04-07T01:23:20.625Z,20.47
2018-04-07T01:23:52.638Z,20.49
2018-04-07T01:24:25.454Z,20.50
2018-04-07T01:24:58.226Z,20.49
2018-04-07T01:25:30.267Z,20.49
2018-04-07T01:26:02.292Z,20.50
2018-04-07T01:26:35.099Z,20.49
2018-04-07T01:27:07.129Z,20.49
2018-04-07T01:27:39.915Z,20.49
2018-04-07T01:28:11.961Z,20.50
2018-04-07T01:28:43.978Z,20.49
2018-04-07T01:29:16.053Z,20.49
2018-04-07T01:29:48.067Z,20.48
2018-04-07T01:30:20.110Z,20.48
2018-04-07T01:30:52.122Z,20.48
2018-04-07T01:31:24.156Z,20.47
2018-04-07T01:31:56.181Z,20.48
2018-04-07T01:32:28.969Z,20.47
2018-04-07T01:33:01.000Z,20.48
2018-04-07T01:33:33.025Z,20.47
2018-04-07T01:34:05.056Z,20.47
2018-04-07T01:34:37.076Z,20.48
2018-04-07T01:35:09.141Z,20.47
2018-04-07T01:35:41.147Z,20.48
2018-04-07T01:36:13.163Z,20.48
2018-04-07T01:36:45.251Z,20.48
2018-04-07T01:37:17.266Z,20.48
2018-04-07T01:37:49.288Z,20.48
2018-04-07T01:38:21.340Z,20.48
2018-04-07T01:38:53.359Z,20.48
2018-04-07T01:39:25.382Z,20.49
2018-04-07T01:39:57.400Z,20.48
2018-04-07T01:40:29.449Z,20.48
2018-04-07T01:41:01.480Z,20.48
2018-04-07T01:41:34.269Z,20.48
2018-04-07T01:42:06.364Z,20.49
2018-04-07T01:42:38.370Z,20.48
2018-04-07T01:43:10.408Z,20.49
2018-04-07T01:43:43.197Z,20.49
2018-04-07T01:44:15.219Z,20.49
2018-04-07T01:44:48.011Z,20.49
2018-04-07T01:45:20.037Z,20.47
2018-04-07T01:45:52.840Z,20.47
2018-04-07T01:46:24.872Z,20.48
2018-04-07T01:46:57.658Z,20.48
2018-04-07T01:47:29.719Z,20.47
2018-04-07T01:48:02.487Z,20.47
2018-04-07T01:48:34.518Z,20.47
2018-04-07T01:49:06.544Z,20.47
2018-04-07T01:49:39.339Z,20.47
2018-04-07T01:50:11.356Z,20.47
2018-04-07T01:50:43.403Z,20.49
2018-04-07T01:51:15.413Z,20.47
2018-04-07T01:51:47.436Z,20.48
2018-04-07T01:52:19.453Z,20.48
2018-04-07T01:52:51.495Z,20.48
2018-04-07T01:53:23.513Z,20.48
2018-04-07T01:53:55.550Z,20.48
2018-04-07T01:54:27.607Z,20.48
2018-04-07T01:55:00.368Z,20.48
2018-04-07T01:55:32.397Z,20.48
2018-04-07T01:56:04.409Z,20.48
2018-04-07T01:56:36.440Z,20.48
2018-04-07T01:57:08.493Z,20.49
2018-04-07T01:57:40.516Z,20.49
2018-04-07T01:58:12.548Z,20.48
2018-04-07T01:58:45.349Z,20.48
2018-04-07T01:59:17.383Z,20.48
2018-04-07T01:59:50.172Z,20.47
2018-04-07T02:00:22.203Z,20.48
2018-04-07T02:00:54.234Z,20.47
2018-04-07T02:01:26.253Z,20.48
2018-04-07T02:01:58.295Z,20.47
2018-04-07T02:02:30.302Z,20.47
2018-04-07T02:03:03.091Z,20.47
2018-04-07T02:03:35.122Z,20.47
2018-04-07T02:04:07.925Z,20.47
2018-04-07T02:04:39.960Z,20.46
2018-04-07T02:05:11.993Z,20.46
2018-04-07T02:05:44.782Z,20.46
2018-04-07T02:06:16.808Z,20.48
2018-04-07T02:06:49.607Z,20.48
2018-04-07T02:07:21.632Z,20.48
2018-04-07T02:07:54.417Z,20.48
2018-04-07T02:08:26.458Z,20.47
2018-04-07T02:08:59.248Z,20.47
2018-04-07T02:09:31.283Z,20.47
2018-04-07T02:10:03.353Z,20.47
2018-04-07T02:10:35.394Z,20.46
2018-04-07T02:11:07.448Z,20.47
2018-04-07T02:11:39.475Z,20.47
2018-04-07T02:12:12.278Z,20.47
2018-04-07T02:12:44.322Z,20.49
2018-04-07T02:13:16.399Z,20.48
2018-04-07T02:13:48.420Z,20.48
2018-04-07T02:14:20.432Z,20.49
2018-04-07T02:14:52.467Z,20.48
2018-04-07T02:15:24.472Z,20.49
2018-04-07T02:15:56.499Z,20.47
2018-04-07T02:16:28.517Z,20.48
2018-04-07T02:17:00.545Z,20.46
2018-04-07T02:17:32.583Z,20.46
2018-04-07T02:18:04.609Z,20.46
2018-04-07T02:18:37.397Z,20.46
2018-04-07T02:19:09.423Z,20.47
2018-04-07T02:19:42.236Z,20.47
2018-04-07T02:20:14.264Z,20.48
2018-04-07T02:20:46.296Z,20.48
2018-04-07T02:21:19.086Z,20.48
2018-04-07T02:21:51.117Z,20.45
2018-04-07T02:22:23.921Z,20.46
2018-04-07T02:22:55.943Z,20.45
2018-04-07T02:23:28.747Z,20.46
2018-04-07T02:24:00.797Z,20.45
2018-04-07T02:24:32.828Z,20.47
2018-04-07T02:25:05.669Z,20.46
2018-04-07T02:25:37.682Z,20.46
2018-04-07T02:26:09.715Z,20.47
2018-04-07T02:26:41.740Z,20.47
2018-04-07T02:27:14.548Z,20.47
2018-04-07T02:27:46.563Z,20.46
2018-04-07T02:28:18.588Z,20.46
2018-04-07T02:28:50.622Z,20.48
2018-04-07T02:29:22.651Z,20.46
2018-04-07T02:29:54.661Z,20.47
2018-04-07T02:30:27.449Z,20.46
2018-04-07T02:30:59.492Z,20.46
2018-04-07T02:31:32.275Z,20.46
2018-04-07T02:32:04.302Z,20.46
2018-04-07T02:32:37.081Z,20.46
2018-04-07T02:33:09.855Z,20.46
2018-04-07T02:33:41.884Z,20.46
2018-04-07T02:34:14.712Z,20.46
2018-04-07T02:34:46.714Z,20.45
2018-04-07T02:35:19.515Z,20.45
2018-04-07T02:35:51.543Z,20.46
2018-04-07T02:36:24.335Z,20.46
2018-04-07T02:36:56.368Z,20.45
2018-04-07T02:37:28.392Z,20.45
2018-04-07T02:38:01.202Z,20.46
2018-04-07T02:38:33.244Z,20.45
2018-04-07T02:39:05.317Z,20.45
2018-04-07T02:39:37.338Z,20.45
2018-04-07T02:40:09.419Z,20.46
2018-04-07T02:40:41.436Z,20.47
2018-04-07T02:41:14.220Z,20.46
2018-04-07T02:41:46.284Z,20.45
2018-04-07T02:42:18.306Z,20.47
2018-04-07T02:42:51.107Z,20.47
2018-04-07T02:43:23.133Z,20.47
2018-04-07T02:43:55.210Z,20.46
2018-04-07T02:44:27.249Z,20.46
2018-04-07T02:44:59.266Z,20.46
2018-04-07T02:45:32.088Z,20.46
2018-04-07T02:46:04.124Z,20.46
2018-04-07T02:46:36.136Z,20.46
2018-04-07T02:47:08.953Z,20.47
2018-04-07T02:47:40.963Z,20.46
2018-04-07T02:48:13.776Z,20.46
2018-04-07T02:48:45.811Z,20.45
2018-04-07T02:49:17.829Z,20.46
2018-04-07T02:49:50.612Z,20.46
2018-04-07T02:50:23.413Z,20.46
2018-04-07T02:50:55.446Z,20.47
2018-04-07T02:51:27.459Z,20.46
2018-04-07T02:51:59.526Z,20.46
2018-04-07T02:52:32.311Z,20.45
2018-04-07T02:53:04.338Z,20.46
2018-04-07T02:53:36.349Z,20.46
2018-04-07T02:54:08.382Z,20.46
2018-04-07T02:54:40.404Z,20.45
2018-04-07T02:55:12.437Z,20.45
2018-04-07T02:55:44.450Z,20.45
2018-04-07T02:56:16.483Z,20.45
2018-04-07T02:56:48.498Z,20.45
2018-04-07T02:57:21.294Z,20.45
2018-04-07T02:57:53.320Z,20.45
2018-04-07T02:58:25.338Z,20.44
2018-04-07T02:58:57.373Z,20.45
2018-04-07T02:59:29.392Z,20.44
2018-04-07T03:00:01.435Z,20.46
2018-04-07T03:00:34.207Z,20.46
2018-04-07T03:01:06.248Z,20.45
2018-04-07T03:01:39.048Z,20.44
2018-04-07T03:02:11.055Z,20.44
2018-04-07T03:02:43.844Z,20.44
2018-04-07T03:03:15.879Z,20.44
2018-04-07T03:03:48.689Z,20.45
2018-04-07T03:04:20.709Z,20.46
2018-04-07T03:04:53.498Z,20.45
2018-04-07T03:05:25.516Z,20.45
2018-04-07T03:05:58.309Z,20.45
2018-04-07T03:06:31.080Z,20.45
2018-04-07T03:07:03.127Z,20.46
2018-04-07T03:07:35.918Z,20.44
2018-04-07T03:08:07.938Z,20.45
2018-04-07T03:08:40.722Z,20.44
2018-04-07T03:09:12.755Z,20.45
2018-04-07T03:09:45.552Z,20.45
2018-04-07T03:10:17.572Z,20.45
2018-04-07T03:10:50.361Z,20.44
2018-04-07T03:11:22.387Z,20.45
2018-04-07T03:11:55.177Z,20.45
2018-04-07T03:12:27.211Z,20.45
2018-04-07T03:13:00.021Z,20.45
2018-04-07T03:13:32.057Z,20.44
2018-04-07T03:14:04.126Z,20.44
2018-04-07T03:14:36.187Z,20.43
2018-04-07T03:15:08.269Z,20.45
2018-04-07T03:15:40.276Z,20.44
2018-04-07T03:16:12.293Z,20.45
2018-04-07T03:16:45.090Z,20.45
2018-04-07T03:17:17.116Z,20.44
2018-04-07T03:17:49.913Z,20.45
2018-04-07T03:18:21.940Z,20.45
2018-04-07T03:18:53.961Z,20.46
2018-04-07T03:19:25.987Z,20.45
2018-04-07T03:19:58.015Z,20.46
2018-04-07T03:20:30.080Z,20.45
2018-04-07T03:21:02.097Z,20.44
2018-04-07T03:21:34.128Z,20.44
2018-04-07T03:22:06.163Z,20.44
2018-04-07T03:22:38.205Z,20.45
2018-04-07T03:23:10.217Z,20.46
2018-04-07T03:23:42.236Z,20.45
2018-04-07T03:24:15.041Z,20.46
2018-04-07T03:24:47.059Z,20.46
2018-04-07T03:25:19.857Z,20.46
2018-04-07T03:25:51.869Z,20.46
2018-04-07T03:26:23.996Z,20.47
2018-04-07T03:26:56.097Z,20.46
2018-04-07T03:27:28.940Z,20.46
2018-04-07T03:28:00.960Z,20.46
2018-04-07T03:28:32.982Z,20.45
2018-04-07T03:29:05.010Z,20.45
2018-04-07T03:29:37.819Z,20.45
2018-04-07T03:30:09.843Z,20.45
2018-04-07T03:30:41.894Z,20.45
2018-04-07T03:31:13.934Z,20.46
2018-04-07T03:31:46.719Z,20.45
2018-04-07T03:32:18.751Z,20.45
2018-04-07T03:32:51.542Z,20.46
2018-04-07T03:33:23.577Z,20.45
2018-04-07T03:33:56.372Z,20.46
2018-04-07T03:34:28.400Z,20.45
2018-04-07T03:35:00.448Z,20.45
2018-04-07T03:35:32.436Z,20.45
2018-04-07T03:36:04.452Z,20.46
2018-04-07T03:36:37.291Z,20.45
2018-04-07T03:37:09.330Z,20.45
2018-04-07T03:37:41.347Z,20.44
2018-04-07T03:38:13.424Z,20.45
2018-04-07T03:38:45.449Z,20.45
2018-04-07T03:39:17.464Z,20.43
2018-04-07T03:39:50.264Z,20.43
2018-04-07T03:40:22.290Z,20.44
2018-04-07T03:40:55.092Z,20.43
2018-04-07T03:41:27.113Z,20.44
2018-04-07T03:41:59.899Z,20.45
2018-04-07T03:42:31.935Z,20.44
2018-04-07T03:43:04.719Z,20.45
2018-04-07T03:43:36.744Z,20.45
2018-04-07T03:44:08.766Z,20.45
2018-04-07T03:44:40.820Z,20.45
2018-04-07T03:45:12.836Z,20.45
2018-04-07T03:45:44.868Z,20.44
2018-04-07T03:46:17.668Z,20.44
2018-04-07T03:46:49.679Z,20.45
2018-04-07T03:47:22.475Z,20.43
2018-04-07T03:47:54.577Z,20.44
2018-04-07T03:48:26.570Z,20.44
2018-04-07T03:48:58.600Z,20.44
2018-04-07T03:49:31.401Z,20.44
2018-04-07T03:50:03.414Z,20.44
2018-04-07T03:50:36.206Z,20.44
2018-04-07T03:51:08.238Z,20.44
2018-04-07T03:51:41.037Z,20.43
2018-04-07T03:52:13.072Z,20.42
2018-04-07T03:52:45.868Z,20.43
2018-04-07T03:53:17.931Z,20.43
2018-04-07T03:53:49.948Z,20.43
2018-04-07T03:54:21.976Z,20.42
2018-04-07T03:54:54.782Z,20.42
2018-04-07T03:55:26.801Z,20.43
2018-04-07T03:55:59.615Z,20.44
2018-04-07T03:56:31.640Z,20.45
2018-04-07T03:57:03.661Z,20.44
2018-04-07T03:57:35.691Z,20.45
2018-04-07T03:58:07.704Z,20.44
2018-04-07T03:58:39.734Z,20.43
2018-04-07T03:59:12.513Z,20.44
2018-04-07T03:59:44.569Z,20.44
2018-04-07T04:00:16.591Z,20.44
2018-04-07T04:00:49.389Z,20.44
2018-04-07T04:01:21.411Z,20.45
2018-04-07T04:01:54.199Z,20.44
2018-04-07T04:02:26.279Z,20.45
2018-04-07T04:02:58.306Z,20.45
2018-04-07T04:03:30.364Z,20.45
2018-04-07T04:04:03.136Z,20.44
2018-04-07T04:04:35.148Z,20.44
2018-04-07T04:05:07.970Z,20.43
2018-04-07T04:05:39.990Z,20.43
2018-04-07T04:06:12.046Z,20.44
2018-04-07T04:06:44.065Z,20.43
2018-04-07T04:07:16.096Z,20.43
2018-04-07T04:07:48.130Z,20.45
2018-04-07T04:08:20.170Z,20.43
2018-04-07T04:08:52.191Z,20.44
2018-04-07T04:09:24.983Z,20.44
2018-04-07T04:09:57.018Z,20.43
2018-04-07T04:10:29.797Z,20.44
2018-04-07T04:11:01.822Z,20.43
2018-04-07T04:11:34.623Z,20.43
2018-04-07T04:12:06.674Z,20.43
2018-04-07T04:12:38.696Z,20.44
2018-04-07T04:13:11.495Z,20.43
2018-04-07T04:13:43.581Z,20.42
2018-04-07T04:14:15.595Z,20.43
2018-04-07T04:14:47.620Z,20.44
2018-04-07T04:15:20.403Z,20.42
2018-04-07T04:15:52.436Z,20.42
2018-04-07T04:16:24.456Z,20.42
2018-04-07T04:16:56.475Z,20.42
2018-04-07T04:17:28.505Z,20.41
2018-04-07T04:18:01.305Z,20.42
2018-04-07T04:18:33.313Z,20.42
2018-04-07T04:19:05.334Z,20.41
2018-04-07T04:19:37.363Z,20.42
2018-04-07T04:20:09.384Z,20.43
2018-04-07T04:20:41.405Z,20.42
2018-04-07T04:21:13.431Z,20.43
2018-04-07T04:21:45.458Z,20.43
2018-04-07T04:22:17.489Z,20.43
2018-04-07T04:22:49.581Z,20.43
2018-04-07T04:23:21.613Z,20.43
2018-04-07T04:23:53.627Z,20.43
2018-04-07T04:24:26.425Z,20.42
2018-04-07T04:24:58.454Z,20.43
2018-04-07T04:25:31.245Z,20.43
2018-04-07T04:26:03.253Z,20.42
2018-04-07T04:26:35.309Z,20.42
2018-04-07T04:27:07.312Z,20.42
2018-04-07T04:27:39.341Z,20.43
2018-04-07T04:28:11.458Z,20.43
2018-04-07T04:28:43.441Z,20.44
2018-04-07T04:29:15.469Z,20.43
2018-04-07T04:29:48.274Z,20.42
2018-04-07T04:30:20.310Z,20.42
2018-04-07T04:30:52.328Z,20.42
2018-04-07T04:31:24.346Z,20.41
2018-04-07T04:31:56.396Z,20.41
2018-04-07T04:32:28.454Z,20.41
2018-04-07T04:33:00.488Z,20.42
2018-04-07T04:33:32.521Z,20.41
2018-04-07T04:34:05.305Z,20.41
2018-04-07T04:34:37.369Z,20.42
2018-04-07T04:35:09.376Z,20.42
2018-04-07T04:35:42.183Z,20.43
2018-04-07T04:36:14.217Z,20.42
2018-04-07T04:36:46.237Z,20.42
2018-04-07T04:37:19.024Z,20.41
2018-04-07T04:37:51.057Z,20.42
2018-04-07T04:38:23.068Z,20.42
2018-04-07T04:38:55.092Z,20.41
2018-04-07T04:39:27.125Z,20.42
2018-04-07T04:39:59.167Z,20.42
2018-04-07T04:40:31.174Z,20.43
2018-04-07T04:41:03.195Z,20.42
2018-04-07T04:41:35.230Z,20.41
2018-04-07T04:42:07.269Z,20.42
2018-04-07T04:42:40.062Z,20.43
2018-04-07T04:43:12.140Z,20.43
2018-04-07T04:43:44.163Z,20.42
2018-04-07T04:44:16.202Z,20.43
2018-04-07T04:44:48.981Z,20.42
2018-04-07T04:45:21.002Z,20.43
2018-04-07T04:45:53.026Z,20.42
2018-04-07T04:46:25.104Z,20.41
2018-04-07T04:46:57.112Z,20.41
2018-04-07T04:47:29.140Z,20.41
2018-04-07T04:48:01.156Z,20.41
2018-04-07T04:48:33.954Z,20.42
2018-04-07T04:49:05.983Z,20.43
2018-04-07T04:49:38.779Z,20.42
2018-04-07T04:50:10.805Z,20.42
2018-04-07T04:50:43.604Z,20.41
2018-04-07T04:51:15.616Z,20.40
2018-04-07T04:51:48.428Z,20.41
2018-04-07T04:52:20.464Z,20.40
2018-04-07T04:52:52.497Z,20.38
2018-04-07T04:53:25.295Z,20.38
2018-04-07T04:53:57.331Z,20.40
2018-04-07T04:54:30.115Z,20.39
2018-04-07T04:55:02.161Z,20.39
2018-04-07T04:55:34.933Z,20.39
2018-04-07T04:56:06.956Z,20.39
2018-04-07T04:56:39.755Z,20.39
2018-04-07T04:57:11.792Z,20.40
2018-04-07T04:57:43.895Z,20.39
2018-04-07T04:58:15.913Z,20.39
2018-04-07T04:58:47.928Z,20.39
2018-04-07T04:59:20.736Z,20.38
2018-04-07T04:59:52.767Z,20.37
2018-04-07T05:00:24.800Z,20.37
2018-04-07T05:00:57.581Z,20.37
2018-04-07T05:01:30.376Z,20.37
2018-04-07T05:02:02.430Z,20.38
2018-04-07T05:02:34.527Z,20.38
2018-04-07T05:03:06.552Z,20.38
2018-04-07T05:03:38.563Z,20.38
2018-04-07T05:04:10.590Z,20.38
2018-04-07T05:04:43.391Z,20.38
2018-04-07T05:05:15.450Z,20.39
2018-04-07T05:05:47.473Z,20.39
2018-04-07T05:06:20.269Z,20.40
2018-04-07T05:06:52.299Z,20.40
2018-04-07T05:07:25.140Z,20.40
2018-04-07T05:07:57.104Z,20.40
2018-04-07T05:08:29.917Z,20.40
2018-04-07T05:09:01.941Z,20.41
2018-04-07T05:09:34.745Z,20.40
2018-04-07T05:10:06.760Z,20.39
2018-04-07T05:10:39.548Z,20.40
2018-04-07T05:11:11.573Z,20.40
2018-04-07T05:11:43.605Z,20.38
2018-04-07T05:12:15.660Z,20.38
2018-04-07T05:12:47.679Z,20.38
2018-04-07T05:13:19.689Z,20.38
2018-04-07T05:13:52.509Z,20.39
2018-04-07T05:14:24.522Z,20.39
2018-04-07T05:14:56.570Z,20.38
2018-04-07T05:15:28.591Z,20.39
2018-04-07T05:16:01.450Z,20.40
2018-04-07T05:16:33.443Z,20.39
2018-04-07T05:17:05.497Z,20.38
2018-04-07T05:17:37.519Z,20.39
2018-04-07T05:18:10.319Z,20.39
2018-04-07T05:18:42.384Z,20.38
2018-04-07T05:19:14.431Z,20.38
2018-04-07T05:19:46.482Z,20.39
2018-04-07T05:20:18.523Z,20.40
2018-04-07T05:20:50.565Z,20.39
2018-04-07T05:21:22.588Z,20.41
2018-04-07T05:21:54.608Z,20.40
2018-04-07T05:22:26.649Z,20.41
2018-04-07T05:22:58.693Z,20.40
2018-04-07T05:23:30.721Z,20.40
2018-04-07T05:24:02.748Z,20.41
2018-04-07T05:24:35.559Z,20.41
2018-04-07T05:25:07.573Z,20.40
2018-04-07T05:25:40.419Z,20.40
2018-04-07T05:26:12.444Z,20.40
2018-04-07T05:26:44.506Z,20.40
2018-04-07T05:27:16.526Z,20.40
2018-04-07T05:27:48.558Z,20.39
2018-04-07T05:28:21.379Z,20.40
2018-04-07T05:28:53.411Z,20.40
2018-04-07T05:29:25.456Z,20.40
2018-04-07T05:29:57.473Z,20.40
2018-04-07T05:30:30.263Z,20.40
2018-04-07T05:31:02.289Z,20.40
2018-04-07T05:31:35.091Z,20.41
2018-04-07T05:32:07.122Z,20.40
2018-04-07T05:32:39.916Z,20.40
2018-04-07T05:33:11.940Z,20.39
2018-04-07T05:33:44.721Z,20.41
2018-04-07T05:34:16.757Z,20.41
2018-04-07T05:34:49.553Z,20.40
2018-04-07T05:35:21.571Z,20.40
2018-04-07T05:35:54.372Z,20.39
2018-04-07T05:36:26.401Z,20.40
2018-04-07T05:36:59.179Z,20.40
2018-04-07T05:37:31.229Z,20.39
2018-04-07T05:38:03.275Z,20.38
2018-04-07T05:38:36.074Z,20.40
2018-04-07T05:39:08.107Z,20.40
2018-04-07T05:39:40.132Z,20.40
2018-04-07T05:40:12.949Z,20.40
2018-04-07T05:40:44.985Z,20.40
2018-04-07T05:41:17.076Z,20.40
2018-04-07T05:41:49.096Z,20.40
2018-04-07T05:42:21.134Z,20.40
2018-04-07T05:42:53.167Z,20.41
2018-04-07T05:43:25.978Z,20.40
2018-04-07T05:43:58.023Z,20.41
2018-04-07T05:44:30.061Z,20.40
2018-04-07T05:45:02.092Z,20.39
2018-04-07T05:45:34.920Z,20.38
2018-04-07T05:46:06.941Z,20.40
2018-04-07T05:46:38.981Z,20.38
2018-04-07T05:47:11.005Z,20.39
2018-04-07T05:47:43.788Z,20.40
2018-04-07T05:48:15.817Z,20.38
2018-04-07T05:48:47.844Z,20.39
2018-04-07T05:49:19.864Z,20.40
2018-04-07T05:49:51.891Z,20.39
2018-04-07T05:50:23.924Z,20.41
2018-04-07T05:50:55.945Z,20.40
2018-04-07T05:51:27.975Z,20.41
2018-04-07T05:51:59.996Z,20.40
2018-04-07T05:52:32.035Z,20.40
2018-04-07T05:53:04.823Z,20.40
2018-04-07T05:53:36.863Z,20.40
2018-04-07T05:54:09.651Z,20.40
2018-04-07T05:54:41.679Z,20.39
2018-04-07T05:55:14.514Z,20.40
2018-04-07T05:55:46.546Z,20.40
2018-04-07T05:56:18.590Z,20.39
2018-04-07T05:56:50.613Z,20.39
2018-04-07T05:57:22.653Z,20.39
2018-04-07T05:57:55.458Z,20.39
2018-04-07T05:58:27.490Z,20.40
2018-04-07T05:58:59.533Z,20.40
2018-04-07T05:59:32.323Z,20.40
2018-04-07T06:00:04.408Z,20.41
2018-04-07T06:00:36.451Z,20.40
2018-04-07T06:01:08.476Z,20.40
2018-04-07T06:01:40.497Z,20.40
2018-04-07T06:02:13.292Z,20.39
2018-04-07T06:02:45.357Z,20.39
2018-04-07T06:03:17.386Z,20.41
2018-04-07T06:03:49.416Z,20.41
2018-04-07T06:04:22.224Z,20.41
2018-04-07T06:04:54.260Z,20.40
2018-04-07T06:05:26.311Z,20.40
2018-04-07T06:05:59.067Z,20.41
2018-04-07T06:06:31.108Z,20.40
2018-04-07T06:07:03.917Z,20.39
2018-04-07T06:07:35.939Z,20.39
2018-04-07T06:08:08.764Z,20.39
2018-04-07T06:08:40.771Z,20.40
2018-04-07T06:09:12.798Z,20.41
2018-04-07T06:09:44.811Z,20.40
2018-04-07T06:10:16.866Z,20.41
2018-04-07T06:10:48.892Z,20.39
2018-04-07T06:11:20.926Z,20.40
2018-04-07T06:11:53.713Z,20.41
2018-04-07T06:12:25.750Z,20.41
2018-04-07T06:12:57.802Z,20.41
2018-04-07T06:13:29.827Z,20.41
2018-04-07T06:14:02.629Z,20.40
2018-04-07T06:14:34.626Z,20.40
2018-04-07T06:15:06.690Z,20.41
2018-04-07T06:15:38.719Z,20.42
2018-04-07T06:16:10.740Z,20.40
2018-04-07T06:16:42.765Z,20.41
2018-04-07T06:17:15.548Z,20.41
2018-04-07T06:17:47.635Z,20.42
2018-04-07T06:18:19.671Z,20.42
2018-04-07T06:18:51.693Z,20.42
2018-04-07T06:19:23.724Z,20.42
2018-04-07T06:19:56.536Z,20.40
2018-04-07T06:20:28.559Z,20.41
2018-04-07T06:21:01.399Z,20.41
2018-04-07T06:21:33.405Z,20.41
2018-04-07T06:22:05.441Z,20.41
2018-04-07T06:22:37.504Z,20.42
2018-04-07T06:23:10.327Z,20.41
2018-04-07T06:23:42.347Z,20.43
2018-04-07T06:24:14.379Z,20.41
2018-04-07T06:24:46.393Z,20.43
2018-04-07T06:25:19.197Z,20.43
2018-04-07T06:25:51.228Z,20.43
2018-04-07T06:26:23.260Z,20.42
2018-04-07T06:26:56.065Z,20.42
2018-04-07T06:27:28.080Z,20.43
2018-04-07T06:28:00.873Z,20.42
2018-04-07T06:28:32.906Z,20.43
2018-04-07T06:29:05.719Z,20.44
2018-04-07T06:29:37.750Z,20.44
2018-04-07T06:30:09.790Z,20.43
2018-04-07T06:30:42.577Z,20.43
2018-04-07T06:31:14.603Z,20.44
2018-04-07T06:31:47.396Z,20.44
2018-04-07T06:32:19.440Z,20.44
2018-04-07T06:32:51.473Z,20.44
2018-04-07T06:33:24.275Z,20.43
2018-04-07T06:33:56.293Z,20.43
2018-04-07T06:34:29.109Z,20.42
2018-04-07T06:35:01.128Z,20.41
2018-04-07T06:35:33.147Z,20.41
2018-04-07T06:36:05.944Z,20.42
2018-04-07T06:36:37.968Z,20.43
2018-04-07T06:37:09.993Z,20.43
2018-04-07T06:37:42.041Z,20.44
2018-04-07T06:38:14.049Z,20.43
2018-04-07T06:38:46.071Z,20.44
2018-04-07T06:39:18.135Z,20.44
2018-04-07T06:39:50.930Z,20.43
2018-04-07T06:40:22.964Z,20.44
2018-04-07T06:40:55.748Z,20.45
2018-04-07T06:41:27.776Z,20.45
2018-04-07T06:42:00.574Z,20.45
2018-04-07T06:42:32.606Z,20.45
2018-04-07T06:43:05.432Z,20.44
2018-04-07T06:43:37.498Z,20.44
2018-04-07T06:44:09.499Z,20.46
2018-04-07T06:44:41.516Z,20.45
2018-04-07T06:45:14.323Z,20.45
2018-04-07T06:45:46.376Z,20.46
2018-04-07T06:46:18.409Z,20.45
2018-04-07T06:46:50.460Z,20.45
2018-04-07T06:47:22.488Z,20.45
2018-04-07T06:47:55.340Z,20.46
2018-04-07T06:48:27.374Z,20.46
2018-04-07T06:48:59.401Z,20.45
2018-04-07T06:49:31.434Z,20.45
2018-04-07T06:50:03.455Z,20.46
2018-04-07T06:50:35.527Z,20.45
2018-04-07T06:51:08.368Z,20.45
2018-04-07T06:51:40.369Z,20.45
2018-04-07T06:52:12.403Z,20.45
2018-04-07T06:52:44.420Z,20.44
2018-04-07T06:53:16.471Z,20.45
2018-04-07T06:53:48.493Z,20.46
2018-04-07T06:54:20.518Z,20.45
2018-04-07T06:54:53.329Z,20.44